Time;durP1;ratioP1;P1;durP2;ratioP2;P2;SDS_P1;SDS_P2;PMS_P1;PMS_P2;Temp;Humidity;BMP_temperature;BMP_pressure;BME280_temperature;BME280_humidity;BME280_pressure;Samples;Min_cycle;Max_cycle;Signal;HPM_P1;HPM_P2
2023/03/21 00:00:59;;;;;;;1.30;1.20;;;8.90;99.90;;;;;;5089122;28;20944;-68
2023/03/21 00:03:25;;;;;;;1.87;1.40;;;8.90;99.90;;;;;;5088888;28;20182;-69
2023/03/21 00:05:52;;;;;;;1.60;1.50;;;9.00;99.90;;;;;;5088700;28;20464;-69
2023/03/21 00:08:19;;;;;;;1.40;1.30;;;9.10;99.90;;;;;;5088663;28;20455;-69
2023/03/21 00:10:45;;;;;;;2.33;1.20;;;9.10;99.90;;;;;;5088856;28;20451;-69
2023/03/21 00:13:12;;;;;;;1.23;1.13;;;9.00;99.90;;;;;;5087344;28;20550;-68
2023/03/21 00:15:48;;;;;;;1.33;1.23;;;9.00;99.90;;;;;;5088586;28;20195;-68
2023/03/21 00:18:17;;;;;;;2.40;1.67;;;9.10;99.90;;;;;;5088604;28;20844;-68
2023/03/21 00:20:50;;;;;;;1.13;1.00;;;9.10;99.90;;;;;;5088551;28;20815;-69
2023/03/21 00:23:16;;;;;;;5.03;1.20;;;9.10;99.90;;;;;;5091140;28;20507;-69
2023/03/21 00:25:41;;;;;;;1.10;0.93;;;9.20;99.90;;;;;;5090540;28;20621;-68
2023/03/21 00:28:07;;;;;;;1.60;1.50;;;9.20;99.90;;;;;;5090764;28;20195;-70
2023/03/21 00:30:33;;;;;;;3.73;1.77;;;9.20;99.90;;;;;;5091866;28;20198;-70
2023/03/21 00:32:58;;;;;;;2.40;1.30;;;9.20;99.90;;;;;;5090655;28;20647;-69
2023/03/21 00:35:24;;;;;;;3.13;2.07;;;9.20;99.90;;;;;;5091880;28;20190;-69
2023/03/21 00:37:50;;;;;;;1.50;1.40;;;9.20;99.90;;;;;;5073523;28;20198;-69
2023/03/21 00:40:16;;;;;;;6.00;1.03;;;9.20;99.90;;;;;;5091930;28;20991;-69
2023/03/21 00:42:41;;;;;;;1.77;1.67;;;9.20;99.90;;;;;;5091627;28;20206;-69
2023/03/21 00:45:09;;;;;;;1.97;1.60;;;9.20;99.90;;;;;;5090193;28;20527;-69
2023/03/21 00:47:34;;;;;;;1.23;1.13;;;9.10;99.90;;;;;;5073092;28;20267;-69
2023/03/21 00:50:00;;;;;;;1.40;1.30;;;9.10;99.90;;;;;;5091260;28;20433;-69
2023/03/21 00:52:26;;;;;;;2.10;1.33;;;9.10;99.90;;;;;;5091388;28;20235;-69
2023/03/21 00:54:51;;;;;;;2.47;1.40;;;9.00;99.90;;;;;;5090805;28;20175;-69
2023/03/21 00:57:17;;;;;;;1.97;1.47;;;9.00;99.90;;;;;;5090847;28;20612;-69
2023/03/21 00:59:43;;;;;;;1.73;1.30;;;9.10;99.90;;;;;;5089247;28;20208;-68
2023/03/21 01:02:13;;;;;;;6.43;1.43;;;8.90;99.90;;;;;;5090657;28;20409;-68
2023/03/21 01:04:39;;;;;;;2.33;1.43;;;9.00;99.90;;;;;;5090812;28;20670;-68
2023/03/21 01:07:05;;;;;;;5.50;1.30;;;9.00;99.90;;;;;;5090709;28;20467;-68
2023/03/21 01:09:31;;;;;;;2.40;1.20;;;9.00;99.90;;;;;;5090546;28;20413;-68
2023/03/21 01:11:57;;;;;;;1.97;1.43;;;8.90;99.90;;;;;;5090619;28;20665;-69
2023/03/21 01:14:23;;;;;;;1.20;1.10;;;8.90;99.90;;;;;;5089073;28;20481;-69
2023/03/21 01:16:50;;;;;;;3.43;1.50;;;8.90;99.90;;;;;;5090821;28;20209;-68
2023/03/21 01:19:18;;;;;;;1.63;1.07;;;9.00;99.90;;;;;;5090452;28;20943;-69
2023/03/21 01:21:44;;;;;;;3.60;1.30;;;9.00;99.90;;;;;;5090429;28;20423;-69
2023/03/21 01:24:10;;;;;;;2.07;1.43;;;9.00;99.90;;;;;;5090389;28;20417;-69
2023/03/21 01:26:36;;;;;;;1.90;1.23;;;9.00;99.90;;;;;;5090606;28;20678;-69
2023/03/21 01:29:03;;;;;;;1.40;1.30;;;9.00;99.90;;;;;;5091100;28;20601;-69
2023/03/21 01:31:29;;;;;;;2.17;1.50;;;9.00;99.90;;;;;;5090316;28;20428;-69
2023/03/21 01:33:54;;;;;;;2.73;1.57;;;9.00;99.90;;;;;;5089706;28;20404;-69
2023/03/21 01:36:23;;;;;;;2.33;1.80;;;9.00;99.90;;;;;;5089015;28;20186;-69
2023/03/21 01:38:50;;;;;;;1.57;1.30;;;9.00;99.90;;;;;;5089938;28;20199;-69
2023/03/21 01:41:31;;;;;;;6.60;1.23;;;9.00;99.90;;;;;;5091418;28;20475;-69
2023/03/21 01:43:57;;;;;;;1.67;1.40;;;8.90;99.90;;;;;;5089662;28;20416;-69
2023/03/21 01:46:38;;;;;;;1.40;1.27;;;8.90;99.90;;;;;;5089756;28;20912;-69
2023/03/21 01:49:23;;;;;;;1.40;1.30;;;9.00;99.90;;;;;;5091157;28;20912;-68
2023/03/21 01:52:03;;;;;;;2.10;1.37;;;9.00;99.90;;;;;;5090976;28;20412;-68
2023/03/21 01:54:32;;;;;;;1.57;1.47;;;9.10;99.90;;;;;;5090869;28;20413;-70
2023/03/21 01:57:02;;;;;;;1.40;1.30;;;9.10;99.90;;;;;;5091092;28;20421;-68
2023/03/21 01:59:37;;;;;;;1.60;1.50;;;9.10;99.90;;;;;;5090598;28;20424;-69
2023/03/21 02:02:05;;;;;;;1.80;1.00;;;9.00;99.90;;;;;;5090438;28;20517;-69
2023/03/21 02:04:35;;;;;;;3.83;1.40;;;9.00;99.90;;;;;;5088780;28;20425;-69
2023/03/21 02:07:08;;;;;;;1.10;1.00;;;9.00;99.90;;;;;;5090180;28;20534;-69
2023/03/21 02:09:36;;;;;;;1.80;1.70;;;8.90;99.90;;;;;;5090403;28;20424;-69
2023/03/21 02:12:03;;;;;;;4.27;1.60;;;8.90;99.90;;;;;;5090341;28;20427;-69
2023/03/21 02:14:32;;;;;;;2.00;1.57;;;8.90;99.90;;;;;;5090036;28;20424;-69
2023/03/21 02:17:28;;;;;;;1.10;1.00;;;8.90;99.90;;;;;;5089937;28;20512;-69
2023/03/21 02:20:36;;;;;;;2.53;1.37;;;9.00;99.90;;;;;;5089716;28;20436;-69
2023/03/21 02:23:32;;;;;;;2.53;1.73;;;9.00;99.90;;;;;;5089713;28;20475;-69
2023/03/21 02:26:31;;;;;;;2.90;1.30;;;9.00;99.90;;;;;;5089533;28;20459;-69
2023/03/21 02:28:56;;;;;;;1.00;1.00;;;9.10;99.90;;;;;;5089474;28;20426;-69
2023/03/21 02:31:39;;;;;;;1.73;1.30;;;9.10;99.90;;;;;;5089447;28;20928;-69
2023/03/21 02:34:11;;;;;;;1.40;1.30;;;9.10;99.90;;;;;;5089483;28;20794;-69
2023/03/21 02:36:46;;;;;;;1.37;1.23;;;9.20;99.90;;;;;;5089288;28;20424;-68
2023/03/21 02:39:44;;;;;;;3.50;2.53;;;9.10;99.90;;;;;;5089354;28;20494;-68
2023/03/21 02:42:16;;;;;;;2.57;2.30;;;9.10;99.90;;;;;;5089405;28;20897;-68
2023/03/21 02:44:45;;;;;;;1.53;1.30;;;9.00;99.90;;;;;;5087753;28;20467;-68
2023/03/21 02:47:13;;;;;;;1.87;1.20;;;9.00;99.90;;;;;;5088433;28;20984;-69
2023/03/21 02:49:54;;;;;;;2.10;1.20;;;9.00;99.90;;;;;;5088845;28;20425;-69
2023/03/21 02:52:28;;;;;;;1.10;1.00;;;9.10;99.90;;;;;;5088885;28;20416;-69
2023/03/21 02:54:55;;;;;;;4.23;1.70;;;9.00;99.90;;;;;;5088784;28;20421;-69
2023/03/21 02:57:21;;;;;;;1.00;0.90;;;9.00;99.90;;;;;;5087329;28;20458;-69
2023/03/21 02:59:51;;;;;;;3.50;1.37;;;9.10;99.90;;;;;;5088647;28;20960;-69
2023/03/21 03:02:22;;;;;;;1.63;1.37;;;9.10;99.90;;;;;;5088641;28;20436;-69
2023/03/21 03:04:47;;;;;;;2.90;1.80;;;9.10;99.90;;;;;;5088859;28;20969;-69
2023/03/21 03:07:50;;;;;;;1.30;0.97;;;9.10;99.90;;;;;;5088574;28;20477;-69
2023/03/21 03:10:37;;;;;;;5.50;1.47;;;9.10;99.90;;;;;;5089268;28;20205;-69
2023/03/21 03:13:12;;;;;;;1.80;1.60;;;9.10;99.90;;;;;;5090594;28;20457;-69
2023/03/21 03:16:10;;;;;;;2.10;1.50;;;9.10;99.90;;;;;;5090743;28;20423;-69
2023/03/21 03:19:10;;;;;;;2.30;1.37;;;9.10;99.90;;;;;;5090454;28;20420;-69
2023/03/21 03:22:23;;;;;;;1.80;1.30;;;9.10;99.90;;;;;;5035044;28;20504;-68
2023/03/21 03:25:02;;;;;;;1.53;1.40;;;9.10;99.90;;;;;;5089661;28;20494;-69
2023/03/21 03:27:32;;;;;;;2.90;1.33;;;9.10;99.90;;;;;;5087267;28;20473;-69
2023/03/21 03:30:00;;;;;;;1.03;0.93;;;9.10;99.90;;;;;;5088804;28;20481;-69
2023/03/21 03:32:35;;;;;;;1.80;1.20;;;9.10;99.90;;;;;;5088569;28;20420;-69
2023/03/21 03:35:03;;;;;;;4.17;2.70;;;9.10;99.90;;;;;;5087334;28;20521;-69
2023/03/21 03:37:32;;;;;;;9.83;5.87;;;9.10;99.90;;;;;;5086787;28;20464;-69
2023/03/21 03:40:12;;;;;;;10.37;5.23;;;9.10;99.90;;;;;;5087039;28;20444;-69
2023/03/21 03:42:45;;;;;;;3.50;2.30;;;9.00;99.90;;;;;;5088492;28;20791;-69
2023/03/21 03:45:11;;;;;;;2.27;2.00;;;9.00;99.90;;;;;;5088671;28;20529;-69
2023/03/21 03:47:49;;;;;;;1.73;1.40;;;9.00;99.90;;;;;;5088520;28;20801;-69
2023/03/21 03:50:45;;;;;;;1.73;1.30;;;9.00;99.90;;;;;;5088715;28;21054;-69
2023/03/21 03:53:22;;;;;;;2.50;1.80;;;9.00;99.90;;;;;;5088709;28;20968;-69
2023/03/21 03:55:50;;;;;;;3.63;1.27;;;9.00;99.90;;;;;;5088865;28;20419;-69
2023/03/21 03:58:20;;;;;;;3.80;1.10;;;9.00;99.90;;;;;;5091627;28;20412;-69
2023/03/21 04:00:47;;;;;;;1.77;1.10;;;9.00;99.90;;;;;;5092439;28;20444;-69
2023/03/21 04:03:13;;;;;;;1.70;1.20;;;9.00;99.90;;;;;;5092548;28;20417;-69
2023/03/21 04:05:40;;;;;;;2.77;1.63;;;9.00;99.90;;;;;;5092331;28;20424;-69
2023/03/21 04:08:07;;;;;;;1.87;1.33;;;9.00;99.90;;;;;;5092931;28;20771;-68
2023/03/21 04:10:32;;;;;;;1.70;1.50;;;9.00;99.90;;;;;;5092247;28;20442;-68
2023/03/21 04:12:58;;;;;;;2.07;1.17;;;9.00;99.90;;;;;;5091116;28;20474;-69
2023/03/21 04:15:24;;;;;;;1.33;1.23;;;9.00;99.90;;;;;;5092313;28;20229;-68
2023/03/21 04:17:50;;;;;;;1.47;1.33;;;9.00;99.90;;;;;;5092236;28;20243;-68
2023/03/21 04:20:16;;;;;;;3.27;1.80;;;9.10;99.90;;;;;;5092242;28;20209;-68
2023/03/21 04:22:41;;;;;;;1.90;1.50;;;9.10;99.90;;;;;;5092685;28;20427;-68
2023/03/21 04:25:07;;;;;;;2.10;1.83;;;9.10;99.90;;;;;;5092128;28;20458;-69
2023/03/21 04:27:33;;;;;;;2.20;1.40;;;9.20;99.90;;;;;;5092101;28;20210;-67
2023/03/21 04:29:59;;;;;;;2.20;1.50;;;9.20;99.90;;;;;;5092124;28;20445;-68
2023/03/21 04:32:25;;;;;;;1.60;1.50;;;9.10;99.90;;;;;;5092385;28;20206;-68
2023/03/21 04:34:53;;;;;;;1.90;1.50;;;9.00;99.90;;;;;;5092549;28;20255;-68
2023/03/21 04:37:22;;;;;;;2.07;1.67;;;9.00;99.90;;;;;;5092340;28;20448;-68
2023/03/21 04:39:49;;;;;;;3.90;1.83;;;9.00;99.90;;;;;;5092802;28;20439;-68
2023/03/21 04:42:17;;;;;;;3.07;2.13;;;9.00;99.90;;;;;;5091355;28;20804;-68
2023/03/21 04:44:46;;;;;;;5.53;1.80;;;9.00;99.90;;;;;;5092476;28;20415;-68
2023/03/21 04:47:14;;;;;;;2.30;1.63;;;9.10;99.90;;;;;;5091970;28;20942;-69
2023/03/21 04:49:40;;;;;;;2.10;1.57;;;9.10;99.90;;;;;;5092398;28;20519;-68
2023/03/21 04:52:06;;;;;;;2.30;1.80;;;9.00;99.90;;;;;;5090144;28;20433;-69
2023/03/21 04:54:32;;;;;;;2.33;1.87;;;9.00;99.90;;;;;;5091824;28;20502;-67
2023/03/21 04:56:58;;;;;;;2.37;1.90;;;9.00;99.90;;;;;;5091689;28;20278;-68
2023/03/21 04:59:24;;;;;;;1.80;1.60;;;9.00;99.90;;;;;;5091483;28;20189;-67
2023/03/21 05:01:50;;;;;;;1.83;1.73;;;9.00;99.90;;;;;;5091392;28;21179;-68
2023/03/21 05:04:16;;;;;;;2.40;1.80;;;9.10;99.90;;;;;;5090975;28;20431;-68
2023/03/21 05:06:42;;;;;;;1.80;1.57;;;9.00;99.90;;;;;;5090993;28;20466;-68
2023/03/21 05:09:09;;;;;;;2.20;2.00;;;9.00;99.90;;;;;;5090074;28;20421;-68
2023/03/21 05:11:36;;;;;;;3.70;2.00;;;9.10;99.90;;;;;;5090883;28;20440;-68
2023/03/21 05:14:02;;;;;;;1.73;1.30;;;9.00;99.90;;;;;;5091043;28;20439;-69
2023/03/21 05:16:29;;;;;;;1.67;1.47;;;9.00;99.90;;;;;;5090929;28;20433;-67
2023/03/21 05:19:02;;;;;;;2.20;1.80;;;9.00;99.90;;;;;;5090936;28;20785;-69
2023/03/21 05:21:32;;;;;;;2.37;2.00;;;8.90;99.90;;;;;;5090867;28;20470;-69
2023/03/21 05:24:02;;;;;;;2.00;1.80;;;9.00;99.90;;;;;;5091078;28;20959;-68
2023/03/21 05:26:28;;;;;;;2.10;2.00;;;9.00;99.90;;;;;;5089766;28;20551;-69
2023/03/21 05:28:54;;;;;;;2.37;2.17;;;9.00;99.90;;;;;;5091036;28;20427;-69
2023/03/21 05:31:20;;;;;;;7.30;4.93;;;9.00;99.90;;;;;;5089719;28;20449;-69
2023/03/21 05:33:47;;;;;;;5.43;3.80;;;8.90;99.90;;;;;;5090642;28;20526;-69
2023/03/21 05:36:13;;;;;;;5.67;3.40;;;8.80;99.90;;;;;;5090088;28;20436;-69
2023/03/21 05:38:44;;;;;;;3.57;2.90;;;8.70;99.90;;;;;;5088575;28;20497;-69
2023/03/21 05:41:11;;;;;;;2.73;2.53;;;8.60;99.90;;;;;;5088505;28;20441;-69
2023/03/21 05:43:36;;;;;;;5.83;2.73;;;8.60;99.90;;;;;;5088603;28;20945;-69
2023/03/21 05:46:02;;;;;;;3.43;2.73;;;8.60;99.90;;;;;;5086833;28;20478;-69
2023/03/21 05:48:27;;;;;;;3.63;2.37;;;8.60;99.90;;;;;;5088794;28;20642;-69
2023/03/21 05:50:53;;;;;;;6.10;3.20;;;8.50;99.90;;;;;;5088396;28;20202;-69
2023/03/21 05:53:19;;;;;;;3.73;2.67;;;8.50;99.90;;;;;;5088221;28;20266;-69
2023/03/21 05:55:45;;;;;;;2.93;2.70;;;8.50;99.90;;;;;;5088317;28;20519;-69
2023/03/21 05:58:11;;;;;;;3.40;2.87;;;8.50;99.90;;;;;;5088883;28;20415;-68
2023/03/21 06:00:37;;;;;;;3.63;1.80;;;8.60;99.90;;;;;;5088339;28;20439;-68
2023/03/21 06:03:02;;;;;;;3.20;2.53;;;8.50;99.90;;;;;;5088402;28;20426;-68
2023/03/21 06:05:28;;;;;;;4.93;2.20;;;8.60;99.90;;;;;;5088425;28;20244;-69
2023/03/21 06:07:54;;;;;;;3.10;2.77;;;8.60;99.90;;;;;;5088540;28;20244;-69
2023/03/21 06:10:20;;;;;;;3.03;2.73;;;8.60;99.90;;;;;;5088934;28;20636;-69
2023/03/21 06:12:45;;;;;;;4.37;3.30;;;8.60;99.90;;;;;;5087062;28;20419;-69
2023/03/21 06:15:11;;;;;;;6.90;3.50;;;8.60;99.90;;;;;;5087001;28;20217;-68
2023/03/21 06:17:36;;;;;;;3.57;3.13;;;8.60;99.90;;;;;;5088510;28;20265;-69
2023/03/21 06:20:05;;;;;;;3.43;2.67;;;8.60;99.90;;;;;;5088356;28;20206;-68
2023/03/21 06:22:32;;;;;;;2.80;2.60;;;8.60;99.90;;;;;;5087105;28;20616;-69
2023/03/21 06:24:57;;;;;;;2.80;2.60;;;8.50;99.90;;;;;;5088887;28;20446;-69
2023/03/21 06:27:23;;;;;;;4.90;2.70;;;8.60;99.90;;;;;;5088840;28;20979;-69
2023/03/21 06:29:48;;;;;;;5.17;2.73;;;8.50;99.90;;;;;;5089059;28;20217;-69
2023/03/21 06:32:15;;;;;;;4.23;3.17;;;8.60;99.90;;;;;;5089508;28;20227;-69
2023/03/21 06:34:41;;;;;;;5.93;2.93;;;8.70;99.90;;;;;;5089239;28;20184;-70
2023/03/21 06:37:06;;;;;;;5.13;3.20;;;8.80;99.90;;;;;;5088833;28;20440;-68
2023/03/21 06:39:32;;;;;;;6.03;3.00;;;8.90;99.90;;;;;;5087457;28;20982;-69
2023/03/21 06:41:59;;;;;;;3.20;2.90;;;9.00;99.90;;;;;;5088590;28;20266;-68
2023/03/21 06:44:25;;;;;;;4.30;3.00;;;9.20;99.90;;;;;;5088216;28;20183;-69
2023/03/21 06:46:51;;;;;;;6.30;4.13;;;9.50;99.90;;;;;;5086606;28;20549;-69
2023/03/21 06:49:17;;;;;;;9.40;5.33;;;9.70;99.90;;;;;;5086524;28;20416;-69
2023/03/21 06:51:42;;;;;;;6.90;5.57;;;9.70;99.90;;;;;;5086279;28;20416;-69
2023/03/21 06:54:09;;;;;;;19.70;8.37;;;9.80;99.90;;;;;;5089236;28;20244;-69
2023/03/21 06:56:34;;;;;;;10.13;6.77;;;9.80;99.90;;;;;;5087043;28;20218;-69
2023/03/21 06:59:00;;;;;;;14.40;8.50;;;9.90;99.90;;;;;;5087856;28;20488;-68
2023/03/21 07:01:26;;;;;;;13.83;7.80;;;10.00;99.90;;;;;;5085924;28;20210;-69
2023/03/21 07:03:53;;;;;;;13.50;8.80;;;10.20;99.90;;;;;;5085924;28;20926;-70
2023/03/21 07:06:18;;;;;;;10.73;8.70;;;10.30;99.90;;;;;;5087564;28;20214;-70
2023/03/21 07:08:46;;;;;;;5.90;4.80;;;10.60;99.90;;;;;;5087725;28;20498;-69
2023/03/21 07:11:12;;;;;;;8.77;4.93;;;10.80;99.90;;;;;;5085850;28;20532;-70
2023/03/21 07:13:38;;;;;;;13.73;6.50;;;11.10;99.90;;;;;;5087141;28;20508;-69
2023/03/21 07:16:04;;;;;;;8.10;6.27;;;11.50;99.90;;;;;;5087389;28;20358;-69
2023/03/21 07:18:29;;;;;;;10.57;6.80;;;11.80;99.90;;;;;;5087357;28;20188;-69
2023/03/21 07:20:56;;;;;;;10.00;5.80;;;12.10;99.90;;;;;;5085568;28;20446;-69
2023/03/21 07:23:24;;;;;;;7.03;5.73;;;12.10;99.90;;;;;;5085396;28;20192;-69
2023/03/21 07:25:51;;;;;;;13.07;6.33;;;12.20;99.90;;;;;;5087153;28;20522;-69
2023/03/21 07:28:17;;;;;;;6.90;4.57;;;12.50;99.90;;;;;;5087102;28;20418;-69
2023/03/21 07:30:44;;;;;;;8.83;4.83;;;12.80;99.90;;;;;;5087155;28;20434;-69
2023/03/21 07:33:11;;;;;;;5.63;3.87;;;12.80;99.90;;;;;;5090226;28;20503;-69
2023/03/21 07:35:36;;;;;;;7.43;3.83;;;13.20;99.90;;;;;;5091557;28;20432;-69
2023/03/21 07:38:05;;;;;;;3.60;3.23;;;13.60;99.90;;;;;;5091123;28;20462;-69
2023/03/21 07:40:31;;;;;;;4.03;2.63;;;14.00;98.80;;;;;;5091129;28;20284;-69
2023/03/21 07:42:56;;;;;;;6.10;5.10;;;14.00;97.20;;;;;;5091400;28;20530;-69
2023/03/21 07:45:24;;;;;;;9.20;6.57;;;14.00;97.80;;;;;;5091241;28;20416;-69
2023/03/21 07:47:50;;;;;;;6.63;5.43;;;14.00;98.70;;;;;;5091188;28;20715;-69
2023/03/21 07:50:16;;;;;;;7.93;4.70;;;14.10;98.50;;;;;;5091256;28;20444;-69
2023/03/21 07:52:42;;;;;;;7.60;4.20;;;14.20;97.10;;;;;;5091453;28;20509;-70
2023/03/21 07:55:08;;;;;;;16.03;3.90;;;14.30;96.90;;;;;;5090901;28;21361;-69
2023/03/21 07:57:34;;;;;;;3.77;2.73;;;14.50;96.30;;;;;;5091151;28;20190;-69
2023/03/21 07:59:59;;;;;;;9.20;3.83;;;14.70;95.10;;;;;;5089469;28;20448;-70
2023/03/21 08:02:25;;;;;;;4.00;3.50;;;14.60;95.50;;;;;;5089157;28;20492;-69
2023/03/21 08:04:51;;;;;;;5.80;3.70;;;14.70;95.40;;;;;;5090990;28;20688;-69
2023/03/21 08:07:17;;;;;;;5.37;3.30;;;14.70;95.90;;;;;;5090621;28;20478;-69
2023/03/21 08:09:43;;;;;;;5.23;2.83;;;14.90;94.70;;;;;;5090625;28;20709;-70
2023/03/21 08:12:09;;;;;;;4.60;2.70;;;15.10;93.30;;;;;;5090675;28;20653;-69
2023/03/21 08:14:35;;;;;;;4.83;2.37;;;15.10;92.30;;;;;;5088796;28;20528;-69
2023/03/21 08:17:02;;;;;;;4.20;2.20;;;15.20;92.50;;;;;;5090416;28;20453;-69
2023/03/21 08:19:27;;;;;;;4.07;2.83;;;15.20;92.00;;;;;;5090277;28;20454;-69
2023/03/21 08:21:53;;;;;;;3.40;2.63;;;15.20;92.50;;;;;;5090463;28;20987;-69
2023/03/21 08:24:19;;;;;;;4.27;2.40;;;15.20;92.30;;;;;;5090359;28;20209;-69
2023/03/21 08:26:45;;;;;;;4.50;3.00;;;15.20;92.80;;;;;;5090402;28;20287;-69
2023/03/21 08:29:12;;;;;;;6.80;2.70;;;15.10;92.70;;;;;;5090351;28;20650;-69
2023/03/21 08:31:40;;;;;;;4.93;2.70;;;15.00;92.20;;;;;;5089883;28;20812;-69
2023/03/21 08:34:06;;;;;;;3.43;2.47;;;15.00;93.30;;;;;;5088453;28;20888;-69
2023/03/21 08:36:35;;;;;;;4.60;2.53;;;15.10;93.10;;;;;;5089834;28;20419;-69
2023/03/21 08:39:04;;;;;;;2.73;2.10;;;15.20;93.50;;;;;;5089601;28;21236;-69
2023/03/21 08:41:34;;;;;;;4.10;2.00;;;15.30;92.20;;;;;;5087866;28;20459;-69
2023/03/21 08:44:00;;;;;;;5.00;3.30;;;15.30;91.70;;;;;;5089440;28;20507;-69
2023/03/21 08:46:25;;;;;;;7.07;4.33;;;15.20;92.90;;;;;;5089363;28;20564;-69
2023/03/21 08:48:52;;;;;;;11.10;7.17;;;15.30;93.40;;;;;;5088121;28;20208;-70
2023/03/21 08:51:18;;;;;;;4.53;3.10;;;15.30;93.50;;;;;;5089471;28;20199;-69
2023/03/21 08:53:43;;;;;;;2.97;2.70;;;15.20;93.90;;;;;;5089316;28;20428;-69
2023/03/21 08:56:10;;;;;;;2.27;2.07;;;15.40;93.50;;;;;;5087925;28;20299;-69
2023/03/21 08:58:36;;;;;;;3.47;2.47;;;15.80;92.80;;;;;;5089103;28;20214;-69
2023/03/21 09:01:03;;;;;;;1.90;1.80;;;16.20;91.60;;;;;;5089057;28;20436;-70
2023/03/21 09:03:29;;;;;;;3.83;2.13;;;16.70;90.60;;;;;;5089368;28;20807;-70
2023/03/21 09:05:55;;;;;;;2.30;1.70;;;17.10;90.70;;;;;;5089061;28;20425;-69
2023/03/21 09:08:22;;;;;;;2.27;1.60;;;17.40;88.10;;;;;;5089398;28;20422;-70
2023/03/21 09:10:57;;;;;;;4.57;1.93;;;17.40;84.70;;;;;;5089174;28;20446;-69
2023/03/21 09:13:23;;;;;;;2.50;1.90;;;17.80;83.50;;;;;;5089369;28;20974;-68
2023/03/21 09:15:49;;;;;;;1.97;1.60;;;17.60;80.40;;;;;;5087359;28;20433;-68
2023/03/21 09:18:20;;;;;;;8.97;2.10;;;18.00;81.80;;;;;;5088954;28;20434;-70
2023/03/21 09:20:47;;;;;;;2.43;2.03;;;18.30;80.50;;;;;;5089012;28;20446;-70
2023/03/21 09:23:13;;;;;;;2.03;1.60;;;18.90;79.30;;;;;;5088908;28;20426;-69
2023/03/21 09:25:44;;;;;;;4.23;1.77;;;19.70;77.40;;;;;;5088959;28;20561;-69
2023/03/21 09:28:10;;;;;;;3.83;2.47;;;20.20;77.00;;;;;;5088928;28;20984;-69
2023/03/21 09:30:36;;;;;;;6.73;2.70;;;20.30;76.10;;;;;;5087189;28;20467;-70
2023/03/21 09:33:07;;;;;;;2.03;1.90;;;20.60;74.20;;;;;;5088704;28;20183;-70
2023/03/21 09:35:33;;;;;;;2.07;1.87;;;21.00;72.40;;;;;;5088778;28;20510;-70
2023/03/21 09:38:00;;;;;;;2.20;2.10;;;21.10;71.50;;;;;;5088684;28;20888;-70
2023/03/21 09:40:47;;;;;;;6.83;2.03;;;21.30;69.80;;;;;;5089239;28;20965;-69
2023/03/21 09:43:48;;;;;;;2.20;2.00;;;21.20;67.20;;;;;;5088923;28;20921;-70
2023/03/21 09:46:32;;;;;;;2.37;2.17;;;21.50;66.00;;;;;;5050491;28;20476;-69
2023/03/21 09:49:06;;;;;;;3.17;1.80;;;21.70;65.50;;;;;;5088106;28;20410;-69
2023/03/21 09:51:44;;;;;;;3.27;2.23;;;21.40;64.00;;;;;;5088631;28;20455;-70
2023/03/21 09:54:32;;;;;;;3.50;2.13;;;21.60;64.10;;;;;;5088517;28;20430;-69
2023/03/21 09:57:03;;;;;;;2.70;2.10;;;21.30;60.20;;;;;;5086687;28;20428;-69
2023/03/21 09:59:38;;;;;;;6.73;2.10;;;21.10;63.60;;;;;;5088271;28;20503;-69
2023/03/21 10:02:34;;;;;;;2.43;2.03;;;21.00;64.60;;;;;;5086540;28;20562;-69
2023/03/21 10:05:08;;;;;;;2.17;1.97;;;20.90;63.40;;;;;;5088311;28;20419;-69
2023/03/21 10:07:39;;;;;;;2.87;2.33;;;20.90;64.70;;;;;;5088327;28;20471;-70
2023/03/21 10:10:06;;;;;;;2.67;2.33;;;21.10;66.50;;;;;;5088092;28;20519;-70
2023/03/21 10:12:32;;;;;;;3.70;2.20;;;21.10;64.00;;;;;;5086501;28;20523;-69
2023/03/21 10:15:00;;;;;;;2.50;2.30;;;21.10;65.00;;;;;;5088239;28;20507;-69
2023/03/21 10:17:32;;;;;;;2.60;2.23;;;21.20;64.40;;;;;;5088895;28;20224;-70
2023/03/21 10:20:10;;;;;;;2.90;2.23;;;21.10;65.30;;;;;;5087008;28;20814;-70
2023/03/21 10:22:37;;;;;;;3.93;2.43;;;21.30;67.40;;;;;;5088483;28;20419;-69
2023/03/21 10:25:04;;;;;;;3.40;2.27;;;20.80;67.80;;;;;;5087173;28;20431;-70
2023/03/21 10:27:32;;;;;;;3.00;2.50;;;20.90;68.30;;;;;;5088335;28;20471;-70
2023/03/21 10:29:59;;;;;;;4.37;2.63;;;21.20;65.70;;;;;;5086917;28;20936;-70
2023/03/21 10:32:25;;;;;;;4.93;3.57;;;21.30;64.30;;;;;;5088201;28;20904;-69
2023/03/21 10:34:54;;;;;;;5.60;2.83;;;21.40;65.70;;;;;;5088285;28;20477;-70
2023/03/21 10:37:21;;;;;;;7.93;2.57;;;21.00;65.50;;;;;;5088282;28;20509;-69
2023/03/21 10:39:53;;;;;;;2.70;2.47;;;20.90;65.10;;;;;;5088046;28;20444;-69
2023/03/21 10:42:23;;;;;;;7.60;2.70;;;21.00;63.30;;;;;;5088281;28;20427;-69
2023/03/21 10:44:55;;;;;;;3.00;2.70;;;21.00;64.10;;;;;;5088127;28;20418;-69
2023/03/21 10:47:27;;;;;;;2.77;2.00;;;21.50;65.00;;;;;;5086451;28;20474;-70
2023/03/21 10:49:53;;;;;;;2.93;2.07;;;21.60;64.50;;;;;;5087706;28;20436;-70
2023/03/21 10:52:21;;;;;;;4.33;2.20;;;21.30;64.10;;;;;;5088419;28;20475;-70
2023/03/21 10:54:48;;;;;;;2.20;2.00;;;21.20;63.70;;;;;;5086571;28;20431;-69
2023/03/21 10:57:24;;;;;;;2.97;2.33;;;21.10;62.40;;;;;;5088101;28;20429;-69
2023/03/21 10:59:57;;;;;;;3.40;2.50;;;20.80;63.10;;;;;;5088002;28;20504;-69
2023/03/21 11:02:33;;;;;;;2.50;2.23;;;20.50;64.20;;;;;;5086698;28;20770;-69
2023/03/21 11:05:37;;;;;;;2.93;2.63;;;20.60;62.40;;;;;;5088861;28;20415;-68
2023/03/21 11:08:16;;;;;;;3.73;2.40;;;20.70;63.40;;;;;;5085870;28;20464;-69
2023/03/21 11:11:03;;;;;;;3.50;2.30;;;20.80;63.10;;;;;;5088428;28;20420;-68
2023/03/21 11:13:40;;;;;;;3.20;2.90;;;20.90;61.60;;;;;;5087951;28;20840;-70
2023/03/21 11:16:23;;;;;;;2.73;2.00;;;20.70;62.40;;;;;;5088415;28;20420;-69
2023/03/21 11:18:51;;;;;;;3.93;1.90;;;20.60;64.10;;;;;;5088669;28;20465;-70
2023/03/21 11:21:18;;;;;;;3.33;2.17;;;20.60;66.30;;;;;;5088332;28;20428;-69
2023/03/21 11:23:48;;;;;;;4.10;2.50;;;20.50;63.30;;;;;;5088021;28;20819;-69
2023/03/21 11:26:29;;;;;;;5.63;2.67;;;20.50;63.50;;;;;;5086432;28;20491;-70
2023/03/21 11:28:56;;;;;;;4.60;1.90;;;20.20;61.50;;;;;;5087754;28;20984;-70
2023/03/21 11:31:23;;;;;;;2.77;2.20;;;20.10;64.10;;;;;;5087786;28;20488;-69
2023/03/21 11:33:55;;;;;;;3.90;2.27;;;19.90;63.60;;;;;;5087505;28;20488;-69
2023/03/21 11:36:21;;;;;;;2.93;2.23;;;19.70;64.40;;;;;;5085962;28;20428;-70
2023/03/21 11:38:51;;;;;;;2.43;1.80;;;19.70;63.50;;;;;;5085708;28;20969;-69
2023/03/21 11:41:27;;;;;;;5.77;2.70;;;19.40;65.20;;;;;;5087228;28;20202;-69
2023/03/21 11:43:53;;;;;;;3.10;1.87;;;19.40;65.70;;;;;;5087646;28;20404;-69
2023/03/21 11:46:24;;;;;;;7.00;2.20;;;19.40;66.40;;;;;;5086873;28;20986;-69
2023/03/21 11:48:50;;;;;;;4.07;2.20;;;19.30;66.50;;;;;;5086973;28;20448;-70
2023/03/21 11:51:34;;;;;;;4.40;2.17;;;19.30;66.40;;;;;;5087065;28;20444;-69
2023/03/21 11:54:11;;;;;;;5.83;2.23;;;19.20;67.30;;;;;;5087415;28;20517;-69
2023/03/21 11:56:53;;;;;;;7.57;2.13;;;19.00;66.20;;;;;;5087172;28;20431;-69
2023/03/21 11:59:32;;;;;;;2.50;2.30;;;19.00;66.50;;;;;;5085900;28;20736;-69
2023/03/21 12:02:20;;;;;;;2.00;1.77;;;18.80;66.00;;;;;;5087590;28;20418;-69
2023/03/21 12:05:06;;;;;;;3.93;1.70;;;18.60;68.70;;;;;;5087377;28;20416;-69
2023/03/21 12:08:02;;;;;;;2.50;2.30;;;18.70;68.40;;;;;;5087801;28;20509;-69
2023/03/21 12:10:28;;;;;;;3.17;2.13;;;18.40;68.80;;;;;;5088883;28;20446;-69
2023/03/21 12:12:56;;;;;;;2.53;1.67;;;18.20;69.80;;;;;;5090011;28;20416;-69
2023/03/21 12:15:47;;;;;;;2.80;1.87;;;18.10;69.30;;;;;;5088395;28;20182;-69
2023/03/21 12:18:56;;;;;;;3.67;2.10;;;18.10;71.60;;;;;;5089006;28;20773;-69
2023/03/21 12:21:45;;;;;;;2.80;2.07;;;18.00;70.30;;;;;;5091023;28;20438;-69
2023/03/21 12:24:25;;;;;;;3.87;2.50;;;18.00;71.90;;;;;;5090434;28;20425;-69
2023/03/21 12:27:09;;;;;;;2.90;2.50;;;17.90;70.60;;;;;;5090582;28;20566;-69
2023/03/21 12:29:48;;;;;;;6.23;3.17;;;17.80;71.40;;;;;;5090093;28;20437;-69
2023/03/21 12:32:35;;;;;;;3.30;2.87;;;17.80;74.20;;;;;;5090251;28;20460;-69
2023/03/21 12:35:24;;;;;;;2.30;2.00;;;17.80;74.70;;;;;;5090286;28;20463;-69
2023/03/21 12:38:16;;;;;;;2.80;1.90;;;17.80;74.50;;;;;;5089842;28;20437;-69
2023/03/21 12:41:03;;;;;;;2.93;2.60;;;17.80;73.30;;;;;;5088017;28;20448;-69
2023/03/21 12:43:50;;;;;;;2.57;2.33;;;17.90;75.00;;;;;;5089822;28;20413;-69
2023/03/21 12:46:19;;;;;;;3.10;1.90;;;17.90;74.00;;;;;;5089866;28;20802;-69
2023/03/21 12:49:01;;;;;;;6.20;2.20;;;18.00;74.70;;;;;;5089663;28;20419;-69
2023/03/21 12:51:31;;;;;;;2.60;2.10;;;17.90;74.90;;;;;;5090180;28;20857;-69
2023/03/21 12:54:06;;;;;;;3.40;2.57;;;17.80;74.60;;;;;;5089790;28;20421;-69
2023/03/21 12:56:37;;;;;;;3.70;2.33;;;17.90;74.00;;;;;;5090143;28;20419;-69
2023/03/21 12:59:14;;;;;;;2.77;2.50;;;17.90;74.60;;;;;;5088608;28;20427;-69
2023/03/21 13:01:42;;;;;;;3.30;2.67;;;17.80;74.20;;;;;;5089593;28;20798;-69
2023/03/21 13:04:41;;;;;;;4.50;2.50;;;17.90;75.60;;;;;;5089452;28;21195;-69
2023/03/21 13:07:11;;;;;;;9.27;3.40;;;17.80;75.40;;;;;;5089441;28;20558;-70
2023/03/21 13:09:41;;;;;;;3.80;2.20;;;17.80;76.80;;;;;;5089500;28;20478;-68
2023/03/21 13:12:43;;;;;;;4.70;2.90;;;17.70;76.30;;;;;;5089510;28;20423;-68